メインページ
METAR-TAF:

METAR-TAF

空港 :

モスクワ-シェレメーチエヴォ, ロシア

シェレメーチエヴォ国際空港

緯度: 55-59N, 経度: 037-30E, 海抜: 190m

現時点の気象観測

当レポートは18分前の23:00(UTC)に作成
北東の風 4kt
気温 9°C
湿度 81%
気圧 1014 hPa
視程10km以上
高度4100ftの雲は散在している, 積乱雲.
弱いにわか雨

METAR: UUEE 272300Z 04002MPS 9999 -SHRA SCT041CB 09/06 Q1014 R06R/CLRD62 NOSIG

時間: 02:18 (23:18 UTC)

予報

当レポートは3時間19分前の19:59(UTC)に作成
予報は27日の 21時(UTC)から 28日の 21時(UTC)まで有効
北東の風 6kt
視程10km以上
高度3000ftの千切れ雲あり
27日の 23時(UTC)から 28日の 07時(UTC)まで一時的に
高度600ftの雲は散在している
高度1500ftの千切れ雲あり, 積乱雲.
弱いにわか雨
28日の 02時(UTC)から 28日の 04時(UTC)まで徐々に
の風 14kt、最大23ktの突風を伴う
28日の 17時(UTC)から 28日の 19時(UTC)まで徐々に
の風 8kt

TAF: UUEE 271959Z 2721/2821 05003MPS 9999 BKN030 TX13/2813Z TN07/2801Z TEMPO 2723/2807 -SHRA SCT006 BKN015CB BECMG 2802/2804 01007G12MPS BECMG 2817/2819 18004MPS

4,000以上の空港の気象観測と天気予報(METAR報とTAF報)

利用可能な観測所は地図上に黄色い丸と赤い丸で示す。

丸の上にカーソルを重ねると観測所名を参照できる。

次にクリックすると気象観測と天気予報を参照できる。

マップの切り替え:黒色「×」印の緑ボタンをクリックして拡大、「-」印の緑ボタンをクリックして縮小、緑色の三角印をクリックして隣りの地図に切り替え


METAR-TAF: